createdAt,value
2023-01-28T00:02:07.974Z,7.60
2023-01-28T00:07:02.032Z,7.61
2023-01-28T00:11:54.504Z,7.61
2023-01-28T00:16:45.111Z,7.61
2023-01-28T00:21:42.879Z,7.66
2023-01-28T00:26:38.434Z,7.62
2023-01-28T00:31:35.904Z,7.67
2023-01-28T00:36:35.217Z,7.64
2023-01-28T00:41:26.654Z,7.58
2023-01-28T00:46:26.166Z,7.61
2023-01-28T00:51:18.539Z,7.64
2023-01-28T00:56:14.736Z,7.56
2023-01-28T01:01:16.178Z,7.41
2023-01-28T01:06:13.891Z,7.43
2023-01-28T01:11:07.147Z,7.47
2023-01-28T01:16:11.040Z,7.50
2023-01-28T01:21:05.016Z,7.51
2023-01-28T01:26:01.241Z,7.47
2023-01-28T01:30:56.235Z,7.47
2023-01-28T01:35:49.370Z,7.44
2023-01-28T01:40:43.146Z,7.38
2023-01-28T01:45:45.607Z,7.37
2023-01-28T01:50:40.962Z,7.34
2023-01-28T01:55:35.722Z,7.24
2023-01-28T02:00:28.478Z,7.13
2023-01-28T02:05:26.194Z,7.17
2023-01-28T02:10:20.830Z,7.19
2023-01-28T02:15:19.846Z,7.15
2023-01-28T02:20:14.726Z,7.24
2023-01-28T02:25:25.412Z,7.16
2023-01-28T02:30:24.690Z,7.15
2023-01-28T02:35:26.769Z,7.02
2023-01-28T02:40:22.462Z,7.09
2023-01-28T02:45:23.776Z,6.98
2023-01-28T02:50:17.717Z,7.12
2023-01-28T02:55:14.133Z,7.02
2023-01-28T03:00:13.090Z,7.10
2023-01-28T03:05:13.778Z,7.07
2023-01-28T03:10:07.280Z,7.05
2023-01-28T03:15:13.306Z,7.11
2023-01-28T03:20:21.574Z,7.04
2023-01-28T03:25:24.550Z,6.96
2023-01-28T03:30:32.121Z,7.05
2023-01-28T03:35:45.305Z,6.91
2023-01-28T03:40:42.474Z,6.99
2023-01-28T03:45:33.452Z,7.07
2023-01-28T03:50:41.555Z,6.94
2023-01-28T03:55:32.147Z,6.96
2023-01-28T04:00:23.417Z,7.05
2023-01-28T04:05:17.733Z,7.12
2023-01-28T04:10:19.209Z,7.04
2023-01-28T04:15:27.945Z,7.02
2023-01-28T04:20:20.584Z,6.98
2023-01-28T04:25:19.926Z,6.93
2023-01-28T04:30:15.007Z,6.95
2023-01-28T04:35:12.010Z,6.94
2023-01-28T04:40:38.639Z,6.91
2023-01-28T04:45:37.983Z,6.89
2023-01-28T04:50:49.277Z,6.98
2023-01-28T04:56:06.805Z,7.02
2023-01-28T05:01:07.629Z,6.85
2023-01-28T05:06:15.471Z,6.82
2023-01-28T05:11:12.161Z,6.85
2023-01-28T05:16:05.184Z,6.93
2023-01-28T05:21:01.516Z,6.95
2023-01-28T05:25:54.135Z,6.98
2023-01-28T05:30:50.204Z,7.01
2023-01-28T05:35:45.672Z,7.01
2023-01-28T05:40:37.879Z,7.04
2023-01-28T05:45:35.267Z,7.06
2023-01-28T05:51:02.036Z,7.09
2023-01-28T05:56:04.043Z,7.02
2023-01-28T06:01:04.241Z,7.08
2023-01-28T06:06:09.120Z,7.09
2023-01-28T06:11:04.589Z,7.16
2023-01-28T06:16:01.181Z,7.09
2023-01-28T06:21:24.662Z,7.10
2023-01-28T06:26:15.333Z,7.07
2023-01-28T06:31:08.894Z,7.06
2023-01-28T06:35:58.900Z,6.95
2023-01-28T06:41:03.976Z,6.98
2023-01-28T06:45:54.458Z,6.99
2023-01-28T06:50:44.689Z,7.04
2023-01-28T06:55:44.696Z,7.03
2023-01-28T07:00:40.063Z,6.97
2023-01-28T07:05:30.247Z,6.90
2023-01-28T07:10:26.905Z,6.89
2023-01-28T07:15:18.149Z,6.90
2023-01-28T07:20:12.543Z,6.90
2023-01-28T07:25:13.114Z,6.87
2023-01-28T07:30:05.141Z,6.89
2023-01-28T07:34:57.525Z,6.82
2023-01-28T07:39:55.447Z,6.78
2023-01-28T07:44:53.684Z,6.86
2023-01-28T07:49:46.600Z,6.80
2023-01-28T07:54:44.509Z,6.68
2023-01-28T07:59:38.951Z,6.61
2023-01-28T08:04:28.972Z,6.64
2023-01-28T08:09:20.516Z,6.47
2023-01-28T08:14:22.304Z,6.53
2023-01-28T08:19:24.234Z,6.69
2023-01-28T08:24:16.572Z,6.74
2023-01-28T08:29:09.178Z,6.78
2023-01-28T08:34:01.341Z,6.65
2023-01-28T08:38:59.682Z,6.69
2023-01-28T08:43:50.336Z,6.65
2023-01-28T08:48:40.815Z,6.58
2023-01-28T08:53:33.168Z,6.58
2023-01-28T08:58:28.411Z,6.53
2023-01-28T09:03:23.271Z,6.70
2023-01-28T09:08:15.347Z,6.75
2023-01-28T09:13:09.473Z,6.71
2023-01-28T09:18:04.623Z,6.89
2023-01-28T09:22:57.563Z,6.85
2023-01-28T09:27:50.060Z,6.86
2023-01-28T09:32:43.093Z,6.94
2023-01-28T09:37:38.215Z,7.09
2023-01-28T09:42:44.089Z,7.16
2023-01-28T09:47:39.157Z,7.34
2023-01-28T09:52:40.378Z,8.14
2023-01-28T09:57:37.339Z,8.46
2023-01-28T10:02:37.935Z,8.55
2023-01-28T10:07:33.129Z,8.53
2023-01-28T10:12:31.900Z,8.44
2023-01-28T10:17:37.464Z,8.54
2023-01-28T10:22:30.267Z,9.33
2023-01-28T10:32:34.629Z,11.08
2023-01-28T10:37:29.584Z,11.71
2023-01-28T10:42:21.739Z,12.03
2023-01-28T10:47:14.307Z,12.08
2023-01-28T10:52:14.958Z,11.91
2023-01-28T10:57:10.723Z,11.78
2023-01-28T11:02:05.247Z,11.80
2023-01-28T11:06:57.196Z,11.79
2023-01-28T11:11:53.157Z,11.86
2023-01-28T11:16:45.263Z,11.85
2023-01-28T11:21:37.940Z,11.87
2023-01-28T11:26:32.308Z,11.59
2023-01-28T11:31:26.777Z,11.59
2023-01-28T11:36:18.595Z,11.57
2023-01-28T11:41:09.717Z,11.45
2023-01-28T11:46:05.499Z,11.16
2023-01-28T11:51:05.056Z,11.14
2023-01-28T11:56:14.719Z,11.26
2023-01-28T12:01:09.880Z,11.45
2023-01-28T12:06:19.210Z,11.48
2023-01-28T12:11:21.255Z,11.41
2023-01-28T12:16:21.427Z,11.28
2023-01-28T12:21:33.364Z,11.19
2023-01-28T12:26:26.347Z,11.16
2023-01-28T12:31:37.462Z,11.28
2023-01-28T12:36:47.945Z,11.27
2023-01-28T12:41:42.751Z,11.04
2023-01-28T12:46:38.800Z,10.85
2023-01-28T12:51:36.253Z,10.36
2023-01-28T12:56:32.433Z,10.37
2023-01-28T13:01:29.347Z,10.28
2023-01-28T13:06:25.802Z,10.29
2023-01-28T13:11:17.522Z,10.40
2023-01-28T13:16:13.026Z,10.50
2023-01-28T13:21:07.703Z,10.62
2023-01-28T13:25:59.881Z,10.54
2023-01-28T13:30:53.793Z,10.58
2023-01-28T13:35:58.201Z,10.61
2023-01-28T13:40:57.200Z,10.67
2023-01-28T13:46:04.157Z,10.76
2023-01-28T13:50:57.637Z,10.79
2023-01-28T13:55:52.684Z,10.55
2023-01-28T14:00:51.667Z,10.55
2023-01-28T14:06:08.193Z,10.52
2023-01-28T14:11:09.826Z,10.66
2023-01-28T14:16:10.535Z,10.69
2023-01-28T14:21:04.177Z,10.72
2023-01-28T14:26:19.328Z,10.77
2023-01-28T14:31:15.230Z,10.81
2023-01-28T14:36:13.951Z,10.97
2023-01-28T14:41:06.454Z,11.26
2023-01-28T14:46:09.218Z,11.27
2023-01-28T14:51:23.805Z,11.26
2023-01-28T14:56:22.622Z,10.83
2023-01-28T15:01:30.436Z,10.58
2023-01-28T15:06:35.118Z,10.37
2023-01-28T15:11:26.406Z,10.27
2023-01-28T15:16:21.132Z,10.29
2023-01-28T15:21:28.406Z,10.30
2023-01-28T15:26:21.841Z,10.23
2023-01-28T15:31:23.375Z,10.17
2023-01-28T15:36:19.197Z,10.11
2023-01-28T15:41:11.547Z,10.02
2023-01-28T15:46:04.676Z,9.88
2023-01-28T15:51:02.537Z,10.01
2023-01-28T15:55:56.859Z,9.90
2023-01-28T16:00:48.264Z,9.85
2023-01-28T16:05:41.296Z,9.73
2023-01-28T16:10:32.671Z,9.62
2023-01-28T16:15:28.454Z,9.55
2023-01-28T16:20:25.102Z,9.44
2023-01-28T16:25:30.797Z,9.35
2023-01-28T16:30:21.757Z,9.34
2023-01-28T16:35:18.231Z,9.24
2023-01-28T16:40:15.496Z,9.22
2023-01-28T16:45:09.597Z,9.14
2023-01-28T16:50:03.292Z,9.14
2023-01-28T16:55:01.806Z,9.12
2023-01-28T16:59:52.433Z,8.97
2023-01-28T17:04:48.045Z,9.22
2023-01-28T17:09:38.991Z,9.22
2023-01-28T17:14:31.978Z,9.20
2023-01-28T17:19:26.501Z,9.18
2023-01-28T17:24:16.218Z,9.06
2023-01-28T17:29:11.043Z,9.09
2023-01-28T17:34:08.628Z,9.06
2023-01-28T17:38:59.752Z,9.09
2023-01-28T17:43:57.630Z,9.08
2023-01-28T17:48:49.172Z,9.12
2023-01-28T17:53:48.049Z,9.11
2023-01-28T17:58:41.334Z,8.99
2023-01-28T18:03:34.284Z,9.03
2023-01-28T18:08:24.432Z,9.01
2023-01-28T18:13:18.983Z,8.99
2023-01-28T18:18:08.591Z,9.00
2023-01-28T18:22:58.703Z,9.00
2023-01-28T18:27:58.664Z,8.90
2023-01-28T18:32:56.920Z,8.85
2023-01-28T18:37:53.143Z,8.82
2023-01-28T18:42:45.907Z,8.85
2023-01-28T18:47:39.814Z,8.88
2023-01-28T18:52:32.332Z,8.86
2023-01-28T18:57:25.034Z,8.90
2023-01-28T19:02:16.474Z,8.87
2023-01-28T19:07:08.253Z,8.82
2023-01-28T19:12:00.611Z,8.82
2023-01-28T19:16:52.833Z,8.89
2023-01-28T19:21:46.930Z,8.86
2023-01-28T19:26:40.355Z,8.85
2023-01-28T19:31:52.414Z,8.82
2023-01-28T19:36:45.705Z,8.82
2023-01-28T19:41:39.850Z,8.89
2023-01-28T19:46:30.204Z,8.92
2023-01-28T19:51:24.104Z,8.96
2023-01-28T19:56:18.707Z,8.95
2023-01-28T20:01:18.569Z,8.87
2023-01-28T20:06:13.678Z,8.75
2023-01-28T20:11:23.086Z,8.76
2023-01-28T20:16:23.298Z,8.66
2023-01-28T20:21:19.216Z,8.09
2023-01-28T20:26:13.052Z,8.65
2023-01-28T20:31:07.569Z,8.69
2023-01-28T20:36:03.442Z,8.65
2023-01-28T20:40:53.924Z,8.02
2023-01-28T20:45:49.295Z,7.99
2023-01-28T20:50:39.644Z,7.89
2023-01-28T20:55:34.208Z,7.82
2023-01-28T21:00:30.390Z,7.83
2023-01-28T21:05:26.548Z,7.78
2023-01-28T21:10:19.585Z,7.80
2023-01-28T21:15:10.553Z,7.89
2023-01-28T21:20:00.149Z,8.43
2023-01-28T21:24:52.271Z,8.44
2023-01-28T21:29:42.001Z,8.45
2023-01-28T21:34:34.156Z,8.40
2023-01-28T21:39:29.705Z,8.39
2023-01-28T21:44:22.701Z,8.36
2023-01-28T21:49:14.874Z,8.31
2023-01-28T21:54:10.423Z,8.32
2023-01-28T21:59:15.676Z,8.39
2023-01-28T22:04:10.823Z,8.44
2023-01-28T22:09:00.620Z,8.41
2023-01-28T22:13:51.796Z,8.34
2023-01-28T22:18:41.593Z,8.32
2023-01-28T22:23:36.467Z,8.39
2023-01-28T22:28:27.033Z,8.48
2023-01-28T22:33:18.744Z,8.42
2023-01-28T22:38:10.274Z,8.46
2023-01-28T22:43:03.793Z,8.47
2023-01-28T22:47:53.542Z,8.47
2023-01-28T22:52:44.209Z,8.44
2023-01-28T22:57:36.609Z,8.47
2023-01-28T23:02:31.543Z,8.43
2023-01-28T23:07:22.199Z,8.43
2023-01-28T23:12:14.507Z,8.47
2023-01-28T23:17:21.709Z,8.53
2023-01-28T23:22:32.140Z,8.57
2023-01-28T23:27:30.534Z,8.58
2023-01-28T23:32:21.659Z,8.48
2023-01-28T23:37:16.465Z,8.43
2023-01-28T23:42:15.550Z,8.49
2023-01-28T23:47:05.367Z,8.48
2023-01-28T23:51:55.250Z,8.53
2023-01-28T23:56:46.827Z,8.52
